createdAt,value
2019-03-26T00:01:17.409Z,7.13
2019-03-26T00:04:21.634Z,7.43
2019-03-26T00:07:25.902Z,8.33
2019-03-26T00:10:30.375Z,8.10
2019-03-26T00:13:34.595Z,8.10
2019-03-26T00:16:38.801Z,8.97
2019-03-26T00:19:43.260Z,8.20
2019-03-26T00:22:47.526Z,8.27
2019-03-26T00:25:51.724Z,8.50
2019-03-26T00:28:56.019Z,8.20
2019-03-26T00:32:00.278Z,8.43
2019-03-26T00:35:04.884Z,8.63
2019-03-26T00:38:09.197Z,8.95
2019-03-26T00:41:13.419Z,8.93
2019-03-26T00:44:17.710Z,8.17
2019-03-26T00:47:21.944Z,8.77
2019-03-26T00:50:26.151Z,9.47
2019-03-26T00:53:30.618Z,9.10
2019-03-26T00:56:34.825Z,8.00
2019-03-26T00:59:39.041Z,9.13
2019-03-26T01:02:43.291Z,9.13
2019-03-26T01:05:47.569Z,8.63
2019-03-26T01:08:51.834Z,8.63
2019-03-26T01:11:56.023Z,9.17
2019-03-26T01:15:00.601Z,8.15
2019-03-26T01:18:04.990Z,8.83
2019-03-26T01:21:09.387Z,8.47
2019-03-26T01:24:13.648Z,8.93
2019-03-26T01:27:17.827Z,9.10
2019-03-26T01:30:22.048Z,8.60
2019-03-26T01:33:26.477Z,8.17
2019-03-26T01:36:30.727Z,8.87
2019-03-26T01:39:35.180Z,8.73
2019-03-26T01:42:39.453Z,8.25
2019-03-26T01:45:43.916Z,8.63
2019-03-26T01:48:48.255Z,9.50
2019-03-26T01:51:52.595Z,9.23
2019-03-26T01:54:57.710Z,9.50
2019-03-26T01:58:02.142Z,8.90
2019-03-26T02:01:06.418Z,8.67
2019-03-26T02:04:10.636Z,7.97
2019-03-26T02:07:14.899Z,9.00
2019-03-26T02:10:19.400Z,9.13
2019-03-26T02:13:23.906Z,8.73
2019-03-26T02:16:28.105Z,8.33
2019-03-26T02:19:32.352Z,9.30
2019-03-26T02:22:37.081Z,9.10
2019-03-26T02:25:41.369Z,9.17
2019-03-26T02:28:45.558Z,9.90
2019-03-26T02:31:50.146Z,8.97
2019-03-26T02:34:55.333Z,9.13
2019-03-26T02:37:59.584Z,9.10
2019-03-26T02:41:03.888Z,9.10
2019-03-26T02:44:08.139Z,9.30
2019-03-26T02:47:12.419Z,8.93
2019-03-26T02:50:16.802Z,8.70
2019-03-26T02:53:21.097Z,8.90
2019-03-26T02:56:25.418Z,9.33
2019-03-26T02:59:29.914Z,8.77
2019-03-26T03:02:34.162Z,8.30
2019-03-26T03:05:38.350Z,8.07
2019-03-26T03:08:42.611Z,8.03
2019-03-26T03:11:46.916Z,7.50
2019-03-26T03:14:51.179Z,8.07
2019-03-26T03:17:55.411Z,7.50
2019-03-26T03:20:59.668Z,8.33
2019-03-26T03:24:03.935Z,7.40
2019-03-26T03:27:08.924Z,7.80
2019-03-26T03:30:14.284Z,7.40
2019-03-26T03:33:18.655Z,6.97
2019-03-26T03:36:23.193Z,7.40
2019-03-26T03:39:27.469Z,7.23
2019-03-26T03:42:31.642Z,7.17
2019-03-26T03:45:37.048Z,7.37
2019-03-26T03:48:41.440Z,6.97
2019-03-26T03:51:47.787Z,6.50
2019-03-26T03:54:52.639Z,6.20
2019-03-26T03:58:00.131Z,6.30
2019-03-26T04:01:04.350Z,5.70
2019-03-26T04:04:08.665Z,6.00
2019-03-26T04:07:12.932Z,5.57
2019-03-26T04:10:17.110Z,5.50
2019-03-26T04:13:21.448Z,5.57
2019-03-26T04:16:25.627Z,5.50
2019-03-26T04:19:30.172Z,5.63
2019-03-26T04:22:34.708Z,5.20
2019-03-26T04:25:38.888Z,5.00
2019-03-26T04:28:43.185Z,5.00
2019-03-26T04:31:47.410Z,5.53
2019-03-26T04:34:51.606Z,5.67
2019-03-26T04:37:55.868Z,5.70
2019-03-26T04:41:00.069Z,5.87
2019-03-26T04:44:04.414Z,5.63
2019-03-26T04:47:08.628Z,6.97
2019-03-26T04:50:12.996Z,7.27
2019-03-26T04:53:17.214Z,7.50
2019-03-26T04:56:21.505Z,7.00
2019-03-26T04:59:25.723Z,9.10
2019-03-26T05:02:29.966Z,7.97
2019-03-26T05:05:34.145Z,9.33
2019-03-26T05:08:38.508Z,8.90
2019-03-26T05:11:42.763Z,8.70
2019-03-26T05:14:46.971Z,10.70
2019-03-26T05:17:51.244Z,10.30
2019-03-26T05:20:55.530Z,10.87
2019-03-26T05:23:59.779Z,12.30
2019-03-26T05:27:03.989Z,13.07
2019-03-26T05:30:09.197Z,12.73
2019-03-26T05:33:13.456Z,13.30
2019-03-26T05:36:17.716Z,12.23
2019-03-26T05:39:21.987Z,14.67
2019-03-26T05:42:26.246Z,14.20
2019-03-26T05:45:30.487Z,16.87
2019-03-26T05:48:34.719Z,17.63
2019-03-26T05:51:38.929Z,18.03
2019-03-26T05:54:43.150Z,18.20
2019-03-26T05:57:47.374Z,15.60
2019-03-26T06:00:51.597Z,14.50
2019-03-26T06:03:55.914Z,14.93
2019-03-26T06:07:05.225Z,13.37
2019-03-26T06:10:07.935Z,13.93
2019-03-26T06:13:12.146Z,14.47
2019-03-26T06:16:16.403Z,14.10
2019-03-26T06:19:20.642Z,13.43
2019-03-26T06:22:24.881Z,14.85
2019-03-26T06:25:29.432Z,14.73
2019-03-26T06:28:33.741Z,14.93
2019-03-26T06:31:38.248Z,15.68
2019-03-26T06:34:42.508Z,15.57
2019-03-26T06:37:46.760Z,15.03
2019-03-26T06:40:51.159Z,14.37
2019-03-26T06:43:55.382Z,14.53
2019-03-26T06:46:59.875Z,12.90
2019-03-26T06:50:04.865Z,13.47
2019-03-26T06:53:09.251Z,11.90
2019-03-26T06:56:13.460Z,11.57
2019-03-26T06:59:17.693Z,11.10
2019-03-26T07:02:21.987Z,9.40
2019-03-26T07:05:26.286Z,10.93
2019-03-26T07:08:30.501Z,10.77
2019-03-26T07:11:34.843Z,9.60
2019-03-26T07:14:39.177Z,8.60
2019-03-26T07:17:43.447Z,8.20
2019-03-26T07:20:47.706Z,7.57
2019-03-26T07:23:52.047Z,8.10
2019-03-26T07:26:56.282Z,7.77
2019-03-26T07:30:00.530Z,7.73
2019-03-26T07:33:05.239Z,8.93
2019-03-26T07:36:09.533Z,7.60
2019-03-26T07:39:14.225Z,7.22
2019-03-26T07:42:18.456Z,6.67
2019-03-26T07:45:23.590Z,6.20
2019-03-26T07:48:27.777Z,6.03
2019-03-26T07:51:32.018Z,6.37
2019-03-26T07:54:36.242Z,6.03
2019-03-26T07:57:40.474Z,6.00
2019-03-26T08:00:44.946Z,6.10
2019-03-26T08:03:49.494Z,5.90
2019-03-26T08:06:53.754Z,6.00
2019-03-26T08:09:58.090Z,7.17
2019-03-26T08:13:02.554Z,6.00
2019-03-26T08:16:06.831Z,6.10
2019-03-26T08:19:11.109Z,6.57
2019-03-26T08:22:15.419Z,5.93
2019-03-26T08:25:19.770Z,6.03
2019-03-26T08:28:24.611Z,5.45
2019-03-26T08:31:28.906Z,5.87
2019-03-26T08:34:33.126Z,4.97
2019-03-26T08:37:37.379Z,5.40
2019-03-26T08:40:41.614Z,5.33
2019-03-26T08:43:45.878Z,4.50
2019-03-26T08:46:50.125Z,4.73
2019-03-26T08:49:54.357Z,4.63
2019-03-26T08:52:58.605Z,4.70
2019-03-26T08:56:02.802Z,4.40
2019-03-26T08:59:07.030Z,4.43
2019-03-26T09:02:11.262Z,3.90
2019-03-26T09:05:16.015Z,3.70
2019-03-26T09:08:25.557Z,4.87
2019-03-26T09:11:26.278Z,4.47
2019-03-26T09:14:30.532Z,4.10
2019-03-26T09:17:34.747Z,3.93
2019-03-26T09:20:38.990Z,4.63
2019-03-26T09:23:43.190Z,4.33
2019-03-26T09:26:47.432Z,4.50
2019-03-26T09:29:51.662Z,3.93
2019-03-26T09:32:55.853Z,4.30
2019-03-26T09:36:00.127Z,4.47
2019-03-26T09:39:05.705Z,3.73
2019-03-26T09:42:09.978Z,3.97
2019-03-26T09:45:14.986Z,4.03
2019-03-26T09:48:19.574Z,3.13
2019-03-26T09:51:23.834Z,3.47
2019-03-26T09:54:28.034Z,3.40
2019-03-26T09:57:32.409Z,3.73
2019-03-26T10:00:36.774Z,4.17
2019-03-26T10:03:41.067Z,3.60
2019-03-26T10:06:45.392Z,3.75
2019-03-26T10:09:49.647Z,3.47
2019-03-26T10:12:53.942Z,3.90
2019-03-26T10:15:58.137Z,4.20
2019-03-26T10:19:02.422Z,3.73
2019-03-26T10:22:06.758Z,3.53
2019-03-26T10:25:11.613Z,4.40
2019-03-26T10:28:15.850Z,3.90
2019-03-26T10:31:20.222Z,3.60
2019-03-26T10:34:24.429Z,3.50
2019-03-26T10:37:28.644Z,3.43
2019-03-26T10:40:34.039Z,3.67
2019-03-26T10:43:38.226Z,3.33
2019-03-26T10:46:44.578Z,3.40
2019-03-26T10:49:48.361Z,4.43
2019-03-26T10:52:52.662Z,3.37
2019-03-26T10:55:56.881Z,3.40
2019-03-26T10:59:04.053Z,3.60
2019-03-26T11:02:07.479Z,4.13
2019-03-26T11:05:11.850Z,3.90
2019-03-26T11:08:16.406Z,4.17
2019-03-26T11:11:20.739Z,3.80
2019-03-26T11:14:24.917Z,4.08
2019-03-26T11:17:29.161Z,3.53
2019-03-26T11:20:33.571Z,3.90
2019-03-26T11:23:37.862Z,3.93
2019-03-26T11:26:42.446Z,4.03
2019-03-26T11:29:46.677Z,4.10
2019-03-26T11:32:51.021Z,4.33
2019-03-26T11:35:55.329Z,3.50
2019-03-26T11:38:59.605Z,3.87
2019-03-26T11:42:03.896Z,3.70
2019-03-26T11:45:09.201Z,3.80
2019-03-26T11:48:13.434Z,3.40
2019-03-26T11:51:17.661Z,3.27
2019-03-26T11:54:21.905Z,4.30
2019-03-26T11:57:26.180Z,4.20
2019-03-26T12:00:34.048Z,3.93
2019-03-26T12:03:38.315Z,3.90
2019-03-26T12:06:42.592Z,3.93
2019-03-26T12:09:47.059Z,4.20
2019-03-26T12:12:51.331Z,3.70
2019-03-26T12:15:55.550Z,4.10
2019-03-26T12:18:59.806Z,4.20
2019-03-26T12:22:04.159Z,4.80
2019-03-26T12:25:08.806Z,4.70
2019-03-26T12:28:13.013Z,4.73
2019-03-26T12:31:17.270Z,4.92
2019-03-26T12:34:21.497Z,4.57
2019-03-26T12:37:25.817Z,4.60
2019-03-26T12:40:30.146Z,4.07
2019-03-26T12:43:34.342Z,4.17
2019-03-26T12:46:38.571Z,3.97
2019-03-26T12:49:43.101Z,3.87
2019-03-26T12:52:47.766Z,3.97
2019-03-26T12:55:52.014Z,3.27
2019-03-26T12:58:56.248Z,4.00
2019-03-26T13:02:00.526Z,3.92
2019-03-26T13:05:04.940Z,4.28
2019-03-26T13:08:09.189Z,3.37
2019-03-26T13:11:16.799Z,3.50
2019-03-26T13:14:19.746Z,3.03
2019-03-26T13:17:23.988Z,3.07
2019-03-26T13:20:28.242Z,2.97
2019-03-26T13:23:32.479Z,2.60
2019-03-26T13:26:36.891Z,2.60
2019-03-26T13:29:41.114Z,3.30
2019-03-26T13:32:45.382Z,2.90
2019-03-26T13:35:49.637Z,2.77
2019-03-26T13:38:54.123Z,3.07
2019-03-26T13:41:58.400Z,3.17
2019-03-26T13:45:02.649Z,2.97
2019-03-26T13:48:07.039Z,3.20
2019-03-26T13:51:11.287Z,2.80
2019-03-26T13:54:15.461Z,3.10
2019-03-26T13:57:19.803Z,2.90
2019-03-26T14:00:34.213Z,3.30
2019-03-26T14:03:38.516Z,3.30
2019-03-26T14:06:42.802Z,3.07
2019-03-26T14:09:47.234Z,3.87
2019-03-26T14:12:51.566Z,3.23
2019-03-26T14:15:55.766Z,3.27
2019-03-26T14:19:00.041Z,3.63
2019-03-26T14:22:04.402Z,3.33
2019-03-26T14:25:08.824Z,3.23
2019-03-26T14:28:13.901Z,3.00
2019-03-26T14:31:18.347Z,3.17
2019-03-26T14:34:22.830Z,3.58
2019-03-26T14:37:27.132Z,3.00
2019-03-26T14:40:31.306Z,2.87
2019-03-26T14:43:35.543Z,2.87
2019-03-26T14:46:39.850Z,3.13
2019-03-26T14:49:44.138Z,3.20
2019-03-26T14:52:48.395Z,3.07
2019-03-26T14:55:52.789Z,3.53
2019-03-26T14:58:57.629Z,3.30
2019-03-26T15:02:01.896Z,2.97
2019-03-26T15:05:06.646Z,3.10
2019-03-26T15:08:11.129Z,3.30
2019-03-26T15:11:15.350Z,3.30
2019-03-26T15:14:19.609Z,3.87
2019-03-26T15:17:24.153Z,3.30
2019-03-26T15:20:28.390Z,3.23
2019-03-26T15:23:32.609Z,3.00
2019-03-26T15:26:36.811Z,3.37
2019-03-26T15:29:41.076Z,3.23
2019-03-26T15:32:45.405Z,2.83
2019-03-26T15:35:49.622Z,2.90
2019-03-26T15:38:53.907Z,3.07
2019-03-26T15:41:58.151Z,3.00
2019-03-26T15:45:02.392Z,3.47
2019-03-26T15:48:06.894Z,3.07
2019-03-26T15:51:11.165Z,2.93
2019-03-26T15:54:15.465Z,2.80
2019-03-26T15:57:19.732Z,2.90
2019-03-26T16:00:28.886Z,3.10
2019-03-26T16:03:33.202Z,3.00
2019-03-26T16:06:37.416Z,3.20
2019-03-26T16:09:41.651Z,3.30
2019-03-26T16:12:45.886Z,3.40
2019-03-26T16:15:51.793Z,3.43
2019-03-26T16:18:56.582Z,3.57
2019-03-26T16:22:00.775Z,3.33
2019-03-26T16:25:05.938Z,3.40
2019-03-26T16:28:10.150Z,3.20
2019-03-26T16:31:14.419Z,3.30
2019-03-26T16:34:18.711Z,2.90
2019-03-26T16:37:23.151Z,3.00
2019-03-26T16:40:27.380Z,2.92
2019-03-26T16:43:31.579Z,3.13
2019-03-26T16:46:36.479Z,2.93
2019-03-26T16:49:40.904Z,3.20
2019-03-26T16:52:45.129Z,3.27
2019-03-26T16:55:49.387Z,3.70
2019-03-26T16:58:53.586Z,3.03
2019-03-26T17:01:57.838Z,3.13
2019-03-26T17:05:03.098Z,3.90
2019-03-26T17:08:07.449Z,4.00
2019-03-26T17:11:11.722Z,3.20
2019-03-26T17:14:16.040Z,3.23
2019-03-26T17:17:20.254Z,2.70
2019-03-26T17:20:24.575Z,2.93
2019-03-26T17:23:28.941Z,3.30
2019-03-26T17:26:33.186Z,3.17
2019-03-26T17:29:37.419Z,3.00
2019-03-26T17:32:41.706Z,3.03
2019-03-26T17:35:46.141Z,3.30
2019-03-26T17:38:51.357Z,3.57
2019-03-26T17:41:55.626Z,3.20
2019-03-26T17:44:59.882Z,3.47
2019-03-26T17:48:04.158Z,3.63
2019-03-26T17:51:08.401Z,3.90
2019-03-26T17:54:12.656Z,3.77
2019-03-26T17:57:16.867Z,3.52
2019-03-26T18:00:44.830Z,3.37
2019-03-26T18:03:49.422Z,3.53
2019-03-26T18:06:54.269Z,3.80
2019-03-26T18:09:58.533Z,3.73
2019-03-26T18:13:02.757Z,3.50
2019-03-26T18:16:07.038Z,3.43
2019-03-26T18:19:11.303Z,3.60
2019-03-26T18:22:15.509Z,4.23
2019-03-26T18:25:19.782Z,3.50
2019-03-26T18:28:23.965Z,3.27
2019-03-26T18:31:28.214Z,3.90
2019-03-26T18:34:32.497Z,3.73
2019-03-26T18:37:36.944Z,5.47
2019-03-26T18:40:41.206Z,5.13
2019-03-26T18:43:45.515Z,4.10
2019-03-26T18:46:49.876Z,4.20
2019-03-26T18:49:54.191Z,3.70
2019-03-26T18:52:58.452Z,3.90
2019-03-26T18:56:03.002Z,3.73
2019-03-26T18:59:07.582Z,3.97
2019-03-26T19:02:12.121Z,3.60
2019-03-26T19:05:16.430Z,4.03
2019-03-26T19:08:20.734Z,3.87
2019-03-26T19:11:25.030Z,4.27
2019-03-26T19:14:29.250Z,3.90
2019-03-26T19:17:33.522Z,3.83
2019-03-26T19:20:37.781Z,3.73
2019-03-26T19:23:43.382Z,3.70
2019-03-26T19:26:47.769Z,4.27
2019-03-26T19:29:52.102Z,3.63
2019-03-26T19:32:57.875Z,4.10
2019-03-26T19:36:02.216Z,3.93
2019-03-26T19:39:07.943Z,4.00
2019-03-26T19:42:12.897Z,4.28
2019-03-26T19:45:17.421Z,3.92
2019-03-26T19:48:21.653Z,4.30
2019-03-26T19:51:25.921Z,4.27
2019-03-26T19:54:30.130Z,4.07
2019-03-26T19:57:34.416Z,4.10
2019-03-26T20:00:39.090Z,4.27
2019-03-26T20:03:43.346Z,4.07
2019-03-26T20:06:47.598Z,4.53
2019-03-26T20:09:51.819Z,4.50
2019-03-26T20:12:56.244Z,4.03
2019-03-26T20:16:00.598Z,3.60
2019-03-26T20:19:04.866Z,5.07
2019-03-26T20:22:09.149Z,4.20
2019-03-26T20:25:14.582Z,3.93
2019-03-26T20:28:19.753Z,4.00
2019-03-26T20:31:24.566Z,4.33
2019-03-26T20:34:28.980Z,4.77
2019-03-26T20:37:33.281Z,4.10
2019-03-26T20:40:37.598Z,3.53
2019-03-26T20:43:41.844Z,4.30
2019-03-26T20:46:46.338Z,4.70
2019-03-26T20:49:50.591Z,4.17
2019-03-26T20:52:55.233Z,4.23
2019-03-26T20:55:59.457Z,5.00
2019-03-26T20:59:04.397Z,4.07
2019-03-26T21:02:08.625Z,3.87
2019-03-26T21:05:12.965Z,4.40
2019-03-26T21:08:17.200Z,3.60
2019-03-26T21:11:21.680Z,4.87
2019-03-26T21:14:26.069Z,5.10
2019-03-26T21:17:30.660Z,5.63
2019-03-26T21:20:35.787Z,5.00
2019-03-26T21:23:40.095Z,4.63
2019-03-26T21:26:44.427Z,4.87
2019-03-26T21:29:48.749Z,4.43
2019-03-26T21:32:52.964Z,4.50
2019-03-26T21:35:57.182Z,3.93
2019-03-26T21:39:01.484Z,4.27
2019-03-26T21:42:05.678Z,4.37
2019-03-26T21:45:10.721Z,4.50
2019-03-26T21:48:14.969Z,4.60
2019-03-26T21:51:19.886Z,4.17
2019-03-26T21:54:24.416Z,4.37
2019-03-26T21:57:28.590Z,4.43
2019-03-26T22:00:33.134Z,4.60
2019-03-26T22:03:37.526Z,5.15
2019-03-26T22:06:41.993Z,4.90
2019-03-26T22:09:46.242Z,4.67
2019-03-26T22:12:50.413Z,5.10
2019-03-26T22:15:54.889Z,5.33
2019-03-26T22:18:59.056Z,4.90
2019-03-26T22:22:03.284Z,4.80
2019-03-26T22:25:08.067Z,4.90
2019-03-26T22:28:12.290Z,4.87
2019-03-26T22:31:16.520Z,4.50
2019-03-26T22:34:20.728Z,4.80
2019-03-26T22:37:26.585Z,5.03
2019-03-26T22:40:30.834Z,4.47
2019-03-26T22:43:35.078Z,4.97
2019-03-26T22:46:39.517Z,4.73
2019-03-26T22:49:44.050Z,4.70
2019-03-26T22:52:48.737Z,4.50
2019-03-26T22:55:52.966Z,4.37
2019-03-26T22:58:57.275Z,4.93
2019-03-26T23:02:01.621Z,5.17
2019-03-26T23:05:06.613Z,5.83
2019-03-26T23:08:10.866Z,5.80
2019-03-26T23:11:15.159Z,5.97
2019-03-26T23:14:19.417Z,5.47
2019-03-26T23:17:23.859Z,6.53
2019-03-26T23:20:28.042Z,5.40
2019-03-26T23:23:32.322Z,5.13
2019-03-26T23:26:36.586Z,4.97
2019-03-26T23:29:40.797Z,4.90
2019-03-26T23:32:45.062Z,4.73
2019-03-26T23:35:49.260Z,4.40
2019-03-26T23:38:53.504Z,5.10
2019-03-26T23:41:57.713Z,5.87
2019-03-26T23:45:01.942Z,6.10
2019-03-26T23:48:06.208Z,5.53
2019-03-26T23:51:10.476Z,5.27
2019-03-26T23:54:14.768Z,5.07
2019-03-26T23:57:18.953Z,4.67
